sensor_id;sensor_type;location;lat;lon;timestamp;pressure;altitude;pressure_sealevel;temperature;humidity
74578;BME280;63173;49.086;33.418;2023-07-20T18:41:23;99656.56;;;40.30;30.61
74578;BME280;63173;49.086;33.418;2023-07-20T18:43:48;99654.78;;;38.03;34.53
74578;BME280;63173;49.086;33.418;2023-07-20T18:46:14;99648.63;;;38.33;34.11
74578;BME280;63173;49.086;33.418;2023-07-20T18:48:39;99647.75;;;39.11;32.16
74578;BME280;63173;49.086;33.418;2023-07-20T18:51:04;99650.63;;;37.74;35.16
74578;BME280;63173;49.086;33.418;2023-07-20T18:53:32;99656.19;;;37.54;35.72
74578;BME280;63173;49.086;33.418;2023-07-20T18:55:59;99632.00;;;37.83;35.12
74578;BME280;63173;49.086;33.418;2023-07-20T18:58:24;99635.66;;;36.65;36.81
74578;BME280;63173;49.086;33.418;2023-07-20T19:00:50;99637.28;;;37.51;35.83
74578;BME280;63173;49.086;33.418;2023-07-20T19:03:15;99645.47;;;37.11;35.96
74578;BME280;63173;49.086;33.418;2023-07-20T19:05:41;99627.28;;;38.09;34.82
74578;BME280;63173;49.086;33.418;2023-07-20T19:08:10;99627.88;;;38.27;34.26
74578;BME280;63173;49.086;33.418;2023-07-20T19:10:35;99629.19;;;39.56;31.87
74578;BME280;63173;49.086;33.418;2023-07-20T19:13:00;99622.78;;;39.87;31.55
74578;BME280;63173;49.086;33.418;2023-07-20T19:15:26;99634.34;;;38.13;34.64
74578;BME280;63173;49.086;33.418;2023-07-20T19:17:51;99639.91;;;38.51;33.93
74578;BME280;63173;49.086;33.418;2023-07-20T19:20:17;99646.56;;;38.34;33.95
74578;BME280;63173;49.086;33.418;2023-07-20T19:22:43;99636.81;;;39.24;32.74
74578;BME280;63173;49.086;33.418;2023-07-20T19:25:09;99646.28;;;37.50;35.87
74578;BME280;63173;49.086;33.418;2023-07-20T19:27:38;99649.34;;;37.61;35.00
74578;BME280;63173;49.086;33.418;2023-07-20T19:30:05;99633.34;;;38.31;34.64
74578;BME280;63173;49.086;33.418;2023-07-20T19:32:30;99617.44;;;38.04;34.71
74578;BME280;63173;49.086;33.418;2023-07-20T19:34:56;99626.34;;;37.44;36.27
74578;BME280;63173;49.086;33.418;2023-07-20T19:37:21;99621.63;;;38.38;34.30
74578;BME280;63173;49.086;33.418;2023-07-20T19:39:47;99635.22;;;37.90;35.08
74578;BME280;63173;49.086;33.418;2023-07-20T19:42:12;99639.03;;;39.55;32.83
74578;BME280;63173;49.086;33.418;2023-07-20T19:44:38;99650.16;;;38.64;33.57
74578;BME280;63173;49.086;33.418;2023-07-20T19:47:03;99655.13;;;39.43;32.42
74578;BME280;63173;49.086;33.418;2023-07-20T19:49:29;99658.41;;;39.82;31.29
74578;BME280;63173;49.086;33.418;2023-07-20T19:51:54;99670.72;;;39.94;31.11
74578;BME280;63173;49.086;33.418;2023-07-20T19:54:20;99662.75;;;39.52;32.22
74578;BME280;63173;49.086;33.418;2023-07-20T19:56:46;99667.72;;;39.17;32.97
74578;BME280;63173;49.086;33.418;2023-07-20T19:59:11;99668.09;;;37.58;34.98
74578;BME280;63173;49.086;33.418;2023-07-20T20:01:38;99672.50;;;39.91;31.44
74578;BME280;63173;49.086;33.418;2023-07-20T20:04:03;99683.41;;;39.32;33.02
74578;BME280;63173;49.086;33.418;2023-07-20T20:06:29;99684.56;;;39.61;31.79
74578;BME280;63173;49.086;33.418;2023-07-20T20:08:54;99677.72;;;40.24;30.94
74578;BME280;63173;49.086;33.418;2023-07-20T20:11:20;99687.44;;;40.12;31.14
74578;BME280;63173;49.086;33.418;2023-07-20T20:13:48;99682.50;;;39.87;31.29
74578;BME280;63173;49.086;33.418;2023-07-20T20:16:15;99685.41;;;38.42;32.95
74578;BME280;63173;49.086;33.418;2023-07-20T20:18:41;99683.66;;;38.30;33.85
74578;BME280;63173;49.086;33.418;2023-07-20T20:21:08;99680.53;;;38.92;33.04
74578;BME280;63173;49.086;33.418;2023-07-20T20:23:36;99689.53;;;38.27;33.76
74578;BME280;63173;49.086;33.418;2023-07-20T20:26:05;99705.44;;;38.10;34.54
74578;BME280;63173;49.086;33.418;2023-07-20T20:28:30;99715.69;;;37.31;35.81
74578;BME280;63173;49.086;33.418;2023-07-20T20:30:56;99719.41;;;36.80;36.74
74578;BME280;63173;49.086;33.418;2023-07-20T20:33:22;99718.59;;;37.84;35.04
74578;BME280;63173;49.086;33.418;2023-07-20T20:35:49;99724.00;;;39.33;32.34
74578;BME280;63173;49.086;33.418;2023-07-20T20:38:22;99722.13;;;40.67;30.20
74578;BME280;63173;49.086;33.418;2023-07-20T20:40:48;99720.91;;;40.48;30.78
74578;BME280;63173;49.086;33.418;2023-07-20T20:43:14;99728.59;;;40.16;31.15
74578;BME280;63173;49.086;33.418;2023-07-20T20:45:40;99732.97;;;41.42;28.85
74578;BME280;63173;49.086;33.418;2023-07-20T20:48:06;99735.13;;;42.94;27.34
74578;BME280;63173;49.086;33.418;2023-07-20T20:50:36;99735.84;;;42.34;27.85
74578;BME280;63173;49.086;33.418;2023-07-20T20:53:03;99732.50;;;42.30;28.07
74578;BME280;63173;49.086;33.418;2023-07-20T20:55:28;99732.38;;;41.80;28.84
74578;BME280;63173;49.086;33.418;2023-07-20T20:57:54;99729.63;;;41.01;30.23
74578;BME280;63173;49.086;33.418;2023-07-20T21:00:23;99731.19;;;41.50;29.97
74578;BME280;63173;49.086;33.418;2023-07-20T21:02:50;99722.28;;;41.90;28.77
74578;BME280;63173;49.086;33.418;2023-07-20T21:05:16;99708.81;;;40.27;31.80
74578;BME280;63173;49.086;33.418;2023-07-20T21:07:42;99693.81;;;41.32;30.38
74578;BME280;63173;49.086;33.418;2023-07-20T21:10:08;99701.28;;;40.50;31.50
74578;BME280;63173;49.086;33.418;2023-07-20T21:12:34;99709.09;;;41.40;30.25
74578;BME280;63173;49.086;33.418;2023-07-20T21:14:59;99711.53;;;40.16;32.25
74578;BME280;63173;49.086;33.418;2023-07-20T21:17:32;99713.75;;;39.81;32.51
74578;BME280;63173;49.086;33.418;2023-07-20T21:19:57;99700.53;;;39.58;32.99
74578;BME280;63173;49.086;33.418;2023-07-20T21:22:23;99692.63;;;39.88;32.09
74578;BME280;63173;49.086;33.418;2023-07-20T21:24:48;99676.44;;;39.99;32.38
74578;BME280;63173;49.086;33.418;2023-07-20T21:27:13;99663.13;;;38.21;36.11
74578;BME280;63173;49.086;33.418;2023-07-20T21:29:39;99647.97;;;36.62;38.96
74578;BME280;63173;49.086;33.418;2023-07-20T21:32:05;99631.72;;;35.52;41.85
74578;BME280;63173;49.086;33.418;2023-07-20T21:34:31;99614.16;;;36.26;40.84
74578;BME280;63173;49.086;33.418;2023-07-20T21:36:56;99600.94;;;35.18;42.54
74578;BME280;63173;49.086;33.418;2023-07-20T21:39:21;99603.88;;;35.96;40.60
74578;BME280;63173;49.086;33.418;2023-07-20T21:41:47;99608.09;;;36.74;40.23
74578;BME280;63173;49.086;33.418;2023-07-20T21:44:12;99598.50;;;35.88;40.83
74578;BME280;63173;49.086;33.418;2023-07-20T21:46:38;99606.56;;;35.72;41.70
74578;BME280;63173;49.086;33.418;2023-07-20T21:49:03;99606.66;;;37.26;37.83
74578;BME280;63173;49.086;33.418;2023-07-20T21:51:29;99595.56;;;37.14;38.97
74578;BME280;63173;49.086;33.418;2023-07-20T21:53:55;99595.75;;;36.21;40.41
74578;BME280;63173;49.086;33.418;2023-07-20T21:56:20;99590.06;;;38.50;36.23
74578;BME280;63173;49.086;33.418;2023-07-20T21:58:45;99584.84;;;39.64;33.43
74578;BME280;63173;49.086;33.418;2023-07-20T22:01:11;99580.31;;;39.78;33.94
74578;BME280;63173;49.086;33.418;2023-07-20T22:03:36;99577.56;;;37.79;37.11
74578;BME280;63173;49.086;33.418;2023-07-20T22:06:02;99577.84;;;36.90;39.51
74578;BME280;63173;49.086;33.418;2023-07-20T22:08:28;99569.69;;;37.59;37.60
74578;BME280;63173;49.086;33.418;2023-07-20T22:10:53;99575.66;;;36.19;40.22
74578;BME280;63173;49.086;33.418;2023-07-20T22:13:20;99570.75;;;36.61;39.20
74578;BME280;63173;49.086;33.418;2023-07-20T22:15:45;99580.22;;;36.26;39.13
74578;BME280;63173;49.086;33.418;2023-07-20T22:18:11;99571.91;;;38.77;35.34
74578;BME280;63173;49.086;33.418;2023-07-20T22:20:37;99563.34;;;38.08;36.55
74578;BME280;63173;49.086;33.418;2023-07-20T22:23:02;99559.78;;;38.97;35.55
74578;BME280;63173;49.086;33.418;2023-07-20T22:25:28;99552.00;;;38.57;34.78
74578;BME280;63173;49.086;33.418;2023-07-20T22:27:54;99552.41;;;40.07;32.92
74578;BME280;63173;49.086;33.418;2023-07-20T22:30:19;99549.81;;;40.83;31.58
74578;BME280;63173;49.086;33.418;2023-07-20T22:32:45;99553.84;;;39.40;32.84
74578;BME280;63173;49.086;33.418;2023-07-20T22:35:11;99558.69;;;39.14;33.88
74578;BME280;63173;49.086;33.418;2023-07-20T22:37:38;99553.66;;;38.14;35.41
74578;BME280;63173;49.086;33.418;2023-07-20T22:40:04;99546.47;;;40.42;31.99
74578;BME280;63173;49.086;33.418;2023-07-20T22:42:34;99547.59;;;39.62;33.11
74578;BME280;63173;49.086;33.418;2023-07-20T22:45:02;99561.31;;;37.94;35.75
74578;BME280;63173;49.086;33.418;2023-07-20T22:47:29;99571.09;;;36.87;38.22
74578;BME280;63173;49.086;33.418;2023-07-20T22:49:55;99569.47;;;38.35;35.74
74578;BME280;63173;49.086;33.418;2023-07-20T22:52:22;99567.66;;;38.03;36.61
74578;BME280;63173;49.086;33.418;2023-07-20T22:54:48;99565.69;;;38.09;36.21
74578;BME280;63173;49.086;33.418;2023-07-20T22:57:13;99566.31;;;36.93;37.26
74578;BME280;63173;49.086;33.418;2023-07-20T22:59:39;99572.66;;;36.88;38.17
74578;BME280;63173;49.086;33.418;2023-07-20T23:02:04;99567.47;;;37.92;36.29
74578;BME280;63173;49.086;33.418;2023-07-20T23:04:31;99577.50;;;38.37;35.13
74578;BME280;63173;49.086;33.418;2023-07-20T23:06:57;99576.63;;;37.58;36.78
74578;BME280;63173;49.086;33.418;2023-07-20T23:09:22;99580.13;;;37.38;38.21
74578;BME280;63173;49.086;33.418;2023-07-20T23:11:47;99579.28;;;38.20;36.36
74578;BME280;63173;49.086;33.418;2023-07-20T23:14:14;99576.69;;;37.87;35.92
74578;BME280;63173;49.086;33.418;2023-07-20T23:16:39;99577.84;;;38.59;34.77
74578;BME280;63173;49.086;33.418;2023-07-20T23:19:04;99579.00;;;36.50;38.46
74578;BME280;63173;49.086;33.418;2023-07-20T23:21:30;99576.03;;;37.54;36.92
74578;BME280;63173;49.086;33.418;2023-07-20T23:23:56;99588.53;;;37.33;36.77
74578;BME280;63173;49.086;33.418;2023-07-20T23:26:21;99582.75;;;35.37;39.88
74578;BME280;63173;49.086;33.418;2023-07-20T23:28:49;99580.00;;;36.95;37.20
74578;BME280;63173;49.086;33.418;2023-07-20T23:31:15;99585.19;;;36.31;38.43
74578;BME280;63173;49.086;33.418;2023-07-20T23:33:40;99582.59;;;37.45;37.12
74578;BME280;63173;49.086;33.418;2023-07-20T23:36:05;99581.94;;;37.27;35.79
74578;BME280;63173;49.086;33.418;2023-07-20T23:38:39;99590.56;;;36.94;36.26
74578;BME280;63173;49.086;33.418;2023-07-20T23:41:07;99589.59;;;36.32;37.85
74578;BME280;63173;49.086;33.418;2023-07-20T23:43:36;99588.03;;;35.80;38.50
74578;BME280;63173;49.086;33.418;2023-07-20T23:46:03;99595.84;;;36.03;38.49
74578;BME280;63173;49.086;33.418;2023-07-20T23:48:34;99598.84;;;36.00;37.84
74578;BME280;63173;49.086;33.418;2023-07-20T23:51:12;99583.78;;;36.92;36.14
74578;BME280;63173;49.086;33.418;2023-07-20T23:53:45;99596.38;;;35.65;38.18
74578;BME280;63173;49.086;33.418;2023-07-20T23:56:11;99592.31;;;36.17;37.37
74578;BME280;63173;49.086;33.418;2023-07-20T23:58:39;99591.66;;;35.62;38.34
